space.ca alexa rank chart, space.ca alexa rank daily changes

space.ca alexa rank chart, space.ca alexa rank daily changes

space.ca
Actual rank:
109 398

RANK HISTORY

Date Rank Diff
2017/10/24 109 398 -339
2017/10/23 109 737 +751
2017/10/22 108 986 -617
2017/10/21 109 603 -255
2017/10/20 109 858 +1 278
2017/10/19 108 580 +556
2017/10/18 108 024 -865
2017/10/17 108 889 -2 120
2017/10/16 111 009 -4 745
2017/10/14 115 754 +741
2017/10/13 115 013 -1 653
2017/10/12 116 666 -1 223
2017/10/11 117 889 -2 930
2017/10/10 120 819 -345
2017/10/09 121 164 -1 959
2017/10/08 123 123 -652
2017/10/07 123 775 -249
2017/10/06 124 024 -1 653
2017/10/05 125 677 -1 090
2017/10/04 126 767 -4 885
2017/10/03 131 652 -4 713
2017/10/02 136 365 -618
2017/10/01 136 983 -6 284
2017/09/30 143 267 -1 637
2017/09/29 144 904 -1 302
2017/09/28 146 206 -5 233
2017/09/27 151 439 -24 858
2017/09/26 176 297 -12 593
2017/09/25 188 890 +1 470
2017/09/24 187 420 -2 970
2017/09/23 190 390 +5 651
2017/09/22 184 739 +1 448
2017/09/20 183 291 -4 563
2017/09/19 187 854 -6 573
2017/09/18 194 427 -3 466
2017/09/17 197 893 +1 822
2017/09/16 196 071 -1 874
2017/09/15 197 945 +12 215
2017/09/14 185 730 +308
2017/09/13 185 422 +1 144
2017/09/12 184 278 -509
2017/09/11 184 787 +2 208
2017/09/10 182 579 -499
2017/09/09 183 078 +1 577
2017/09/08 181 501 +2 526
2017/09/07 178 975 -1 224
2017/09/06 180 199 -1 689
2017/09/05 181 888 -2 140
2017/09/04 184 028 +1 651
2017/09/03 182 377 +605
2017/09/02 181 772 -2 244
2017/09/01 184 016 +8 499
2017/08/31 175 517 +573
2017/08/30 174 944 +1 443
2017/08/29 173 501 -1 102
2017/08/28 174 603 -4 574
2017/08/27 179 177 -2 283
2017/08/26 181 460 -1 805
2017/08/25 183 265

WIDGET FOR YOUR SITE

DOMAINS WITH THE NEAREST RANK

Domain Rank
faragostar.net 109 393
52sh.com.tw 109 394
t1noticias.com.br 109 395
ironmongerydirect.co.uk 109 396
educacionbogota.edu.co 109 397
space.ca 109 398
299678.com 109 399
tele2.hr 109 400
tsurihack.com 109 401
kosmodrom.com.ua 109 402
knoyiwlxahoh.bid 109 403

DOMAINS WITH THE NEAREST RANK BY TLD .ca

Domain Rank
sportspass.ca 107 882
guessfactory.ca 108 114
guess.ca 108 377
lawstudents.ca 108 717
985fm.ca 109 138
space.ca 109 398
uqo.ca 109 528
1861.ca 109 973
halloweencostumes.ca 110 476
visions.ca 110 957
mtsmail.ca 111 347